Terminal Aerodrome Forecast
Issued by NWS

Home | Current Version | Previous Version | Text Only | Print | Product List | Glossary On
Versions: 1 2 3 4 5 6 7 8 9 10 11 12 13
109
FTUS44 KSJT 241720
TAFBBD
TAF
KBBD 241720Z 2418/2518 27009KT P6SM SKC
     FM250100 17007KT P6SM SKC
     FM251500 19016G24KT P6SM SKC
      AMD NOT SKED=

USA.gov is the U.S. government's official web portal to all federal, state and local government web resources and services.